Time;durP1;ratioP1;P1;durP2;ratioP2;P2;SDS_P1;SDS_P2;PMS_P1;PMS_P2;Temp;Humidity;BMP_temperature;BMP_pressure;BME280_temperature;BME280_humidity;BME280_pressure;Samples;Min_cycle;Max_cycle;Signal;HPM_P1;HPM_P2
2022/02/05 00:01:53;;;;;;;89.22;48.47;;;2.30;99.90;;;;;;4993657;28;20058;-77
2022/02/05 00:04:22;;;;;;;93.63;52.42;;;2.40;99.90;;;;;;4993509;28;20043;-78
2022/02/05 00:06:53;;;;;;;119.55;57.72;;;2.30;99.90;;;;;;4993101;28;20422;-79
2022/02/05 00:10:02;;;;;;;;;;;2.30;99.90;;;;;;4992942;28;20042;-77
2022/02/05 00:40:32;;;;;;;111.32;47.50;;;1.60;99.90;;;;;;4992652;28;20042;-76
2022/02/05 00:43:00;;;;;;;68.80;51.28;;;1.60;99.90;;;;;;4975439;28;20054;-78
2022/02/05 00:45:31;;;;;;;54.63;28.85;;;1.70;99.90;;;;;;4992653;28;20530;-75
2022/02/05 00:48:00;;;;;;;57.65;29.50;;;1.60;99.90;;;;;;4992438;28;20483;-79
2022/02/05 00:50:30;;;;;;;54.08;30.75;;;1.50;99.90;;;;;;4992495;28;20042;-77
2022/02/05 00:53:02;;;;;;;44.83;26.33;;;1.60;99.90;;;;;;4992857;28;20060;-78
2022/02/05 00:55:33;;;;;;;272.17;88.68;;;1.60;99.90;;;;;;4991947;28;20050;-75
2022/02/05 00:58:03;;;;;;;38.92;23.35;;;1.70;99.90;;;;;;4992879;28;20399;-75
2022/02/05 01:00:32;;;;;;;45.55;24.92;;;1.70;99.90;;;;;;4991872;28;20046;-75
2022/02/05 01:02:59;;;;;;;52.35;30.20;;;1.70;99.90;;;;;;4992613;28;20047;-76
2022/02/05 01:05:27;;;;;;;45.15;26.67;;;1.90;99.90;;;;;;4992168;28;20089;-76
2022/02/05 01:07:57;;;;;;;37.28;24.73;;;1.80;99.90;;;;;;4992417;28;20104;-78
2022/02/05 01:10:25;;;;;;;41.33;23.83;;;1.80;99.90;;;;;;4992209;28;20057;-76
2022/02/05 01:13:01;;;;;;;54.28;30.42;;;1.80;99.90;;;;;;4992062;28;20499;-78
2022/02/05 01:15:41;;;;;;;48.35;28.02;;;1.80;99.90;;;;;;4991796;28;20053;-75
2022/02/05 01:18:10;;;;;;;42.07;24.80;;;1.70;99.90;;;;;;4992534;28;20050;-77
2022/02/05 01:23:37;;;;;;;42.90;21.20;;;1.70;99.90;;;;;;4992541;28;20410;-77
2022/02/05 01:26:17;;;;;;;244.57;87.05;;;1.70;99.90;;;;;;4992067;28;20046;-76
2022/02/05 01:28:51;;;;;;;272.92;83.15;;;1.70;99.90;;;;;;4974365;28;20117;-75
2022/02/05 01:31:24;;;;;;;288.27;84.90;;;1.70;99.90;;;;;;4992224;28;20057;-76
2022/02/05 01:34:05;;;;;;;50.60;28.58;;;1.70;99.90;;;;;;4992037;28;20039;-78
2022/02/05 01:51:11;;;;;;;288.42;83.65;;;1.50;99.90;;;;;;4991332;28;20053;-77
2022/02/05 01:58:55;;;;;;;50.83;26.13;;;1.60;99.90;;;;;;4991678;28;20410;-80
2022/02/05 02:11:58;;;;;;;40.75;25.75;;;1.10;99.90;;;;;;4996023;28;20038;-79
2022/02/05 02:20:05;;;;;;;56.08;31.10;;;1.10;99.90;;;;;;4978029;28;20054;-79
2022/02/05 02:30:36;;;;;;;66.55;35.40;;;1.10;99.90;;;;;;4995240;28;20057;-79
2022/02/05 02:33:19;;;;;;;57.90;34.78;;;1.10;99.90;;;;;;4994970;28;20447;-78
2022/02/05 02:35:49;;;;;;;68.25;35.05;;;1.10;99.90;;;;;;4994882;28;20062;-75
2022/02/05 02:38:21;;;;;;;54.50;34.20;;;1.10;99.90;;;;;;4995651;28;20043;-77
2022/02/05 02:41:15;;;;;;;58.83;32.20;;;1.00;99.90;;;;;;4977874;28;20046;-77
2022/02/05 02:43:36;;;;;;;66.45;33.88;;;1.00;99.90;;;;;;4994035;28;20042;-76
2022/02/05 02:46:04;;;;;;;54.05;31.55;;;1.00;99.90;;;;;;4995217;28;20121;-78
2022/02/05 02:48:31;;;;;;;53.15;32.88;;;1.00;99.90;;;;;;4994995;28;20486;-79
2022/02/05 03:01:59;;;;;;;42.97;25.48;;;0.80;99.90;;;;;;4994805;28;20046;-80
2022/02/05 03:04:27;;;;;;;42.88;25.65;;;0.90;99.90;;;;;;4994431;28;20429;-79
2022/02/05 03:06:54;;;;;;;39.22;23.92;;;1.00;99.90;;;;;;4977335;28;20054;-80
2022/02/05 03:09:23;;;;;;;39.97;24.63;;;0.90;99.90;;;;;;4994610;28;20117;-78
2022/02/05 03:11:51;;;;;;;44.75;23.98;;;0.70;99.90;;;;;;4994662;28;20034;-79
2022/02/05 03:14:19;;;;;;;45.03;23.17;;;0.50;99.90;;;;;;4994098;28;20054;-79
2022/02/05 03:16:51;;;;;;;41.38;22.45;;;0.70;99.90;;;;;;4994206;28;20395;-77
2022/02/05 03:19:19;;;;;;;32.05;21.73;;;0.80;99.90;;;;;;4976665;28;20072;-78
2022/02/05 03:21:46;;;;;;;39.45;24.90;;;0.80;99.90;;;;;;4994201;28;20042;-78
2022/02/05 03:24:13;;;;;;;42.05;24.42;;;0.80;99.90;;;;;;4977221;28;20048;-79
2022/02/05 03:26:41;;;;;;;43.80;24.63;;;0.90;99.90;;;;;;4994236;28;20038;-78
2022/02/05 03:29:10;;;;;;;39.97;23.08;;;1.00;99.90;;;;;;4994300;28;20390;-76
2022/02/05 03:31:38;;;;;;;50.43;25.80;;;0.90;99.90;;;;;;4994316;28;20453;-77
2022/02/05 03:34:06;;;;;;;38.42;24.38;;;0.90;99.90;;;;;;4994234;28;20073;-81
2022/02/05 03:36:39;;;;;;;39.17;23.58;;;0.80;99.90;;;;;;4994511;28;20414;-78
2022/02/05 03:39:08;;;;;;;38.08;24.30;;;0.90;99.90;;;;;;4994663;28;20057;-79
2022/02/05 03:41:35;;;;;;;38.70;23.83;;;0.90;99.90;;;;;;4977153;28;20053;-78
2022/02/05 03:44:03;;;;;;;43.00;27.33;;;1.00;99.90;;;;;;4994335;28;20566;-78
2022/02/05 03:46:30;;;;;;;38.83;24.38;;;1.00;99.90;;;;;;4994083;28;20128;-81
2022/02/05 03:48:58;;;;;;;41.60;25.25;;;1.00;99.90;;;;;;4994040;28;20117;-80
2022/02/05 03:51:25;;;;;;;38.63;26.10;;;0.90;99.90;;;;;;4994018;28;20042;-81
2022/02/05 03:53:53;;;;;;;43.35;26.45;;;0.80;99.90;;;;;;4992868;28;20049;-79
2022/02/05 03:56:20;;;;;;;43.50;25.05;;;0.80;99.90;;;;;;4993844;28;20043;-81
2022/02/05 03:58:47;;;;;;;38.80;25.48;;;0.70;99.90;;;;;;4994111;28;20058;-77
2022/02/05 04:01:14;;;;;;;44.83;25.98;;;0.70;99.90;;;;;;4993654;28;20034;-80
2022/02/05 04:03:42;;;;;;;37.70;24.30;;;0.70;99.90;;;;;;4993705;28;20050;-79
2022/02/05 04:06:09;;;;;;;42.70;25.33;;;0.70;99.90;;;;;;4993504;28;20038;-79
2022/02/05 04:08:37;;;;;;;38.65;23.50;;;0.50;99.90;;;;;;4993960;28;20057;-78
2022/02/05 04:11:09;;;;;;;39.95;22.35;;;0.50;99.90;;;;;;4993732;28;20058;-78
2022/02/05 04:16:25;;;;;;;41.58;21.63;;;0.40;99.90;;;;;;4992976;28;20069;-78
2022/02/05 04:18:55;;;;;;;35.20;22.30;;;0.30;99.90;;;;;;4993504;28;20418;-77
2022/02/05 04:21:24;;;;;;;37.95;20.85;;;0.30;99.90;;;;;;4993451;28;20045;-77
2022/02/05 04:23:52;;;;;;;31.02;19.92;;;0.20;99.90;;;;;;4993612;28;20386;-77
2022/02/05 04:26:20;;;;;;;35.85;21.05;;;0.40;99.90;;;;;;4993026;28;20030;-77
2022/02/05 04:28:48;;;;;;;38.55;21.77;;;0.30;99.90;;;;;;4975852;28;20494;-79
2022/02/05 04:31:15;;;;;;;35.80;20.10;;;0.30;99.90;;;;;;4992201;28;20038;-77
2022/02/05 04:33:43;;;;;;;37.40;21.90;;;0.20;99.90;;;;;;4993328;28;20117;-79
2022/02/05 04:36:11;;;;;;;39.88;22.15;;;0.10;99.90;;;;;;4992979;28;20038;-80
2022/02/05 04:38:40;;;;;;;31.33;20.10;;;0.20;99.90;;;;;;4993761;28;20047;-78
2022/02/05 04:46:48;;;;;;;36.22;21.40;;;0.10;99.90;;;;;;4992803;28;20062;-77
2022/02/05 05:10:20;;;;;;;35.85;19.98;;;0.10;99.90;;;;;;4992775;28;20049;-78
2022/02/05 05:13:04;;;;;;;32.60;18.92;;;0.10;99.90;;;;;;4992133;28;20042;-78
2022/02/05 05:19:13;;;;;;;32.70;20.88;;;0.10;99.90;;;;;;4992504;28;20501;-77
2022/02/05 05:21:14;;;;;;;29.60;18.55;;;0.20;99.90;;;;;;4992411;28;20105;-75
2022/02/05 05:23:43;;;;;;;29.05;17.65;;;0.20;99.90;;;;;;4992598;28;20042;-78
2022/02/05 05:26:10;;;;;;;22.75;17.33;;;0.20;99.90;;;;;;4992466;28;20494;-78
2022/02/05 05:28:38;;;;;;;27.17;17.73;;;0.30;99.90;;;;;;4992067;28;20494;-79
2022/02/05 05:31:05;;;;;;;29.20;17.15;;;0.30;99.90;;;;;;4992237;28;20406;-77
2022/02/05 05:33:32;;;;;;;25.48;17.63;;;0.10;99.90;;;;;;4991802;28;20056;-73
2022/02/05 05:36:00;;;;;;;28.58;17.23;;;0.00;99.90;;;;;;4992255;28;20035;-77
2022/02/05 05:38:27;;;;;;;25.95;17.00;;;0.00;99.90;;;;;;4990909;28;20061;-76
2022/02/05 05:40:54;;;;;;;27.95;17.35;;;0.00;99.90;;;;;;4990441;28;20042;-76
2022/02/05 05:43:55;;;;;;;25.83;17.02;;;0.10;99.90;;;;;;4991849;28;20513;-77
2022/02/05 05:46:30;;;;;;;28.90;17.30;;;0.00;99.90;;;;;;4991869;28;20367;-80
2022/02/05 05:49:11;;;;;;;29.75;18.02;;;0.10;99.90;;;;;;4991809;28;20042;-80
2022/02/05 05:51:38;;;;;;;29.77;17.88;;;0.20;99.90;;;;;;4991841;28;20117;-77
2022/02/05 05:54:06;;;;;;;28.52;18.52;;;0.20;99.90;;;;;;4992209;28;20494;-77
2022/02/05 05:56:34;;;;;;;28.85;17.33;;;0.30;99.90;;;;;;4991895;28;20113;-80
2022/02/05 05:59:02;;;;;;;29.55;18.00;;;0.40;99.90;;;;;;4991865;28;20042;-80
2022/02/05 06:01:30;;;;;;;27.17;18.48;;;0.20;99.90;;;;;;4991703;28;20556;-81
2022/02/05 06:03:58;;;;;;;36.15;19.77;;;0.10;99.90;;;;;;4991851;28;20512;-77
2022/02/05 06:06:25;;;;;;;33.17;20.10;;;-0.20;99.90;;;;;;4991590;28;20039;-77
2022/02/05 06:08:52;;;;;;;32.88;19.95;;;0.00;99.90;;;;;;4991975;28;20038;-75
2022/02/05 06:11:20;;;;;;;33.83;19.67;;;0.30;99.90;;;;;;4991986;28;20406;-79
2022/02/05 06:13:47;;;;;;;33.22;19.15;;;0.40;99.90;;;;;;4991810;28;20039;-79
2022/02/05 06:16:17;;;;;;;31.60;18.88;;;0.50;99.90;;;;;;4974155;28;20437;-78
2022/02/05 06:18:45;;;;;;;31.38;18.42;;;0.80;99.90;;;;;;4992168;28;20050;-83
2022/02/05 06:21:12;;;;;;;31.92;18.50;;;0.90;99.90;;;;;;4992163;28;20042;-79
2022/02/05 06:23:39;;;;;;;28.17;17.98;;;0.90;99.90;;;;;;4992033;28;20042;-81
2022/02/05 06:26:06;;;;;;;38.00;18.60;;;1.00;99.90;;;;;;4991464;28;20050;-79
2022/02/05 06:28:34;;;;;;;29.52;19.23;;;1.20;99.90;;;;;;4991500;28;20043;-80
2022/02/05 06:31:01;;;;;;;23.70;17.73;;;1.20;99.90;;;;;;4991569;28;20058;-80
2022/02/05 06:33:28;;;;;;;28.23;18.08;;;1.10;99.90;;;;;;4991696;28;20046;-78
2022/02/05 06:35:55;;;;;;;36.55;17.55;;;0.90;99.90;;;;;;4991728;28;20045;-81
2022/02/05 06:38:24;;;;;;;29.35;18.52;;;0.80;99.90;;;;;;4991302;28;20039;-79
2022/02/05 06:40:55;;;;;;;28.50;18.23;;;0.50;99.90;;;;;;4991556;28;20050;-79
2022/02/05 06:43:22;;;;;;;27.42;17.70;;;0.60;99.90;;;;;;4991191;28;20150;-80
2022/02/05 06:45:49;;;;;;;27.52;17.67;;;0.70;99.90;;;;;;4990858;28;20042;-79
2022/02/05 06:48:17;;;;;;;29.15;18.70;;;0.70;99.90;;;;;;4991433;28;20081;-78
2022/02/05 06:50:44;;;;;;;32.75;19.95;;;0.90;99.90;;;;;;4974082;28;20074;-77
2022/02/05 06:53:11;;;;;;;31.67;21.27;;;1.00;99.90;;;;;;4992681;28;20045;-76
2022/02/05 06:55:38;;;;;;;43.53;24.88;;;1.00;99.90;;;;;;4994900;28;20046;-77
2022/02/05 06:58:06;;;;;;;42.38;25.20;;;0.90;99.90;;;;;;4994784;28;20053;-80
2022/02/05 07:00:34;;;;;;;43.63;23.42;;;1.00;99.90;;;;;;4994633;28;20070;-78
2022/02/05 07:03:01;;;;;;;33.42;21.10;;;1.10;99.90;;;;;;4994764;28;20047;-77
2022/02/05 07:05:28;;;;;;;34.90;21.30;;;1.20;99.90;;;;;;4994570;28;20061;-77
2022/02/05 07:07:55;;;;;;;36.85;21.60;;;1.40;99.90;;;;;;4994716;28;20046;-80
2022/02/05 07:10:23;;;;;;;36.70;22.20;;;1.40;99.90;;;;;;4977483;28;20375;-81
2022/02/05 07:13:04;;;;;;;34.25;20.52;;;1.40;99.90;;;;;;4994799;28;20406;-80
2022/02/05 07:15:37;;;;;;;28.60;20.27;;;1.30;99.90;;;;;;4977104;28;20054;-81
2022/02/05 07:31:23;;;;;;;43.25;25.85;;;1.60;99.90;;;;;;4994755;28;20394;-78
2022/02/05 07:33:50;;;;;;;38.90;23.63;;;1.50;99.90;;;;;;4994543;28;20047;-79
2022/02/05 07:36:18;;;;;;;44.28;25.75;;;1.60;99.90;;;;;;4993947;28;20038;-80
2022/02/05 07:38:47;;;;;;;40.85;24.80;;;1.50;99.90;;;;;;4994015;28;20057;-79
2022/02/05 07:41:14;;;;;;;46.03;25.88;;;1.60;99.90;;;;;;4994124;28;20372;-79
2022/02/05 07:43:42;;;;;;;40.85;25.10;;;1.60;99.90;;;;;;4993976;28;20046;-82
2022/02/05 07:46:11;;;;;;;43.38;26.80;;;1.70;99.90;;;;;;4993956;28;20422;-78
2022/02/05 07:48:39;;;;;;;40.92;26.75;;;1.60;99.90;;;;;;4994151;28;20043;-78
2022/02/05 07:51:07;;;;;;;44.55;27.42;;;1.50;99.90;;;;;;4993882;28;20074;-77
2022/02/05 07:53:35;;;;;;;49.13;27.52;;;1.50;99.90;;;;;;4994349;28;20449;-79
2022/02/05 07:56:04;;;;;;;43.75;25.30;;;1.60;99.90;;;;;;4993681;28;20049;-75
2022/02/05 07:58:32;;;;;;;46.33;23.98;;;1.60;99.90;;;;;;4994508;28;20050;-84
2022/02/05 08:00:59;;;;;;;92.93;50.25;;;1.60;99.90;;;;;;4995418;28;20042;-76
2022/02/05 08:03:27;;;;;;;193.52;93.15;;;1.80;99.90;;;;;;4995137;28;20038;-86
2022/02/05 08:05:54;;;;;;;105.30;59.45;;;2.00;99.90;;;;;;4994079;28;20411;-84
2022/02/05 08:08:27;;;;;;;105.35;59.42;;;2.00;99.90;;;;;;4995245;28;20039;-78
2022/02/05 08:10:58;;;;;;;78.03;44.50;;;2.10;99.90;;;;;;4994100;28;20049;-84
2022/02/05 08:13:28;;;;;;;;;;;1.40;99.90;;;;;;4994417;28;20042;-84
2022/02/05 08:15:58;;;;;;;106.67;60.13;;;1.50;99.90;;;;;;4993208;28;20414;-75
2022/02/05 08:18:26;;;;;;;76.35;44.55;;;1.70;99.90;;;;;;4993942;28;20046;-77
2022/02/05 08:20:54;;;;;;;73.82;44.72;;;1.90;99.90;;;;;;4993253;28;20050;-80
2022/02/05 08:23:21;;;;;;;49.35;29.85;;;1.70;99.90;;;;;;4993544;28;20506;-80
2022/02/05 08:25:49;;;;;;;45.00;29.48;;;1.80;99.90;;;;;;4992881;28;20050;-78
2022/02/05 08:28:16;;;;;;;43.30;27.70;;;2.10;99.90;;;;;;4993559;28;20402;-78
2022/02/05 08:30:43;;;;;;;49.78;28.67;;;2.10;99.90;;;;;;4993201;28;20054;-77
2022/02/05 08:33:11;;;;;;;51.72;29.70;;;2.00;99.90;;;;;;4993235;28;20402;-75
2022/02/05 08:35:38;;;;;;;44.63;29.92;;;2.00;99.90;;;;;;4992980;28;20042;-78
2022/02/05 08:38:05;;;;;;;51.15;28.98;;;2.10;99.90;;;;;;4993394;28;20050;-78
2022/02/05 08:40:33;;;;;;;45.97;28.13;;;2.30;99.90;;;;;;4992806;28;20398;-77
2022/02/05 08:43:01;;;;;;;45.80;30.65;;;2.40;99.90;;;;;;4992930;28;20431;-76
2022/02/05 08:45:28;;;;;;;52.40;28.40;;;2.40;99.90;;;;;;4992600;28;20046;-79
2022/02/05 08:47:55;;;;;;;45.50;30.13;;;2.40;99.90;;;;;;4992781;28;20046;-78
2022/02/05 08:50:23;;;;;;;45.28;28.55;;;2.30;99.90;;;;;;4992402;28;20046;-78
2022/02/05 08:52:54;;;;;;;45.75;28.48;;;2.30;99.90;;;;;;4985832;28;20267;-79
2022/02/05 08:55:22;;;;;;;42.25;27.80;;;2.40;99.90;;;;;;4960294;28;20152;-76
2022/02/05 08:57:52;;;;;;;43.65;26.83;;;2.30;99.90;;;;;;4991661;28;20045;-74
2022/02/05 09:00:24;;;;;;;44.17;28.17;;;2.60;99.90;;;;;;4991753;28;20058;-74
2022/02/05 09:03:02;;;;;;;48.55;27.73;;;2.50;99.90;;;;;;4992621;28;20061;-74
2022/02/05 09:07:58;;;;;;;43.72;29.40;;;2.70;99.90;;;;;;4989467;28;20058;-76
2022/02/05 09:10:38;;;;;;;55.97;28.33;;;2.50;99.90;;;;;;4992077;28;20469;-77
2022/02/05 09:15:34;;;;;;;80.10;43.97;;;2.80;99.90;;;;;;4990813;28;20284;-80
2022/02/05 09:18:01;;;;;;;49.85;31.55;;;3.00;99.90;;;;;;4991817;28;20390;-78
2022/02/05 09:20:29;;;;;;;52.03;32.60;;;2.80;99.90;;;;;;4990087;28;20061;-76
2022/02/05 09:22:56;;;;;;;49.65;30.92;;;2.90;99.90;;;;;;4990723;28;20049;-78
2022/02/05 09:25:25;;;;;;;50.00;30.80;;;2.90;99.90;;;;;;4991361;28;20034;-76
2022/02/05 09:27:53;;;;;;;52.10;31.70;;;2.90;99.90;;;;;;4991764;28;20398;-75
2022/02/05 09:30:29;;;;;;;52.13;31.92;;;3.00;99.90;;;;;;4988625;28;20049;-78
2022/02/05 09:33:00;;;;;;;47.35;32.28;;;3.10;99.90;;;;;;4991630;28;20035;-78
2022/02/05 09:35:27;;;;;;;;;;;3.10;99.90;;;;;;4973285;28;20042;-76
2022/02/05 09:37:54;;;;;;;53.38;30.17;;;3.20;99.90;;;;;;4991349;28;19976;-78
2022/02/05 09:40:22;;;;;;;54.58;31.45;;;3.30;99.90;;;;;;4973900;28;20050;-78
2022/02/05 09:42:50;;;;;;;56.42;32.28;;;3.30;99.90;;;;;;4989006;28;20061;-75
2022/02/05 09:45:20;;;;;;;55.40;31.88;;;3.40;99.90;;;;;;4990419;28;20053;-74
2022/02/05 09:47:49;;;;;;;54.90;32.35;;;3.50;99.90;;;;;;4990888;28;20413;-70
2022/02/05 09:50:21;;;;;;;53.17;33.38;;;3.70;99.90;;;;;;4991382;28;20046;-71
2022/02/05 09:52:54;;;;;;;50.40;32.55;;;3.90;99.90;;;;;;4990181;28;20089;-73
2022/02/05 09:55:21;;;;;;;56.03;33.47;;;4.70;99.90;;;;;;4988442;28;20434;-75
2022/02/05 09:57:49;;;;;;;52.38;33.75;;;4.30;99.90;;;;;;4991560;28;20494;-72
2022/02/05 10:00:19;;;;;;;54.70;32.63;;;4.30;99.90;;;;;;4990800;28;20469;-76
2022/02/05 10:02:55;;;;;;;52.30;32.08;;;4.50;99.90;;;;;;4989965;28;20056;-73
2022/02/05 10:05:30;;;;;;;52.63;29.70;;;4.90;99.90;;;;;;4989625;28;20047;-73
2022/02/05 10:08:23;;;;;;;54.40;31.95;;;4.70;99.90;;;;;;4989189;28;20048;-72
2022/02/05 10:10:51;;;;;;;49.40;32.28;;;4.70;99.90;;;;;;4987885;28;20058;-73
2022/02/05 10:13:19;;;;;;;54.05;32.33;;;5.10;99.90;;;;;;4991054;28;20066;-72
2022/02/05 10:15:53;;;;;;;51.30;31.88;;;5.70;99.90;;;;;;4972728;28;20061;-73
2022/02/05 10:18:27;;;;;;;53.60;32.25;;;6.00;99.90;;;;;;4988791;28;20053;-74
2022/02/05 10:20:57;;;;;;;53.60;31.38;;;6.30;99.90;;;;;;4973939;28;20053;-74
2022/02/05 10:23:25;;;;;;;52.15;32.53;;;6.20;99.90;;;;;;4990644;28;20042;-76
2022/02/05 10:25:54;;;;;;;95.03;52.20;;;5.60;99.90;;;;;;4990136;28;20134;-73
2022/02/05 10:28:22;;;;;;;139.95;79.82;;;5.90;99.90;;;;;;4992075;28;20047;-73
2022/02/05 10:30:53;;;;;;;109.97;63.70;;;6.10;99.90;;;;;;4991507;28;20047;-74
2022/02/05 10:33:33;;;;;;;123.15;58.33;;;6.40;99.90;;;;;;4994468;28;20157;-73
2022/02/05 10:36:26;;;;;;;58.43;34.30;;;6.60;99.90;;;;;;4994452;28;20038;-77
2022/02/05 10:44:33;;;;;;;42.92;27.27;;;5.50;99.90;;;;;;4993743;28;20454;-75
2022/02/05 10:47:03;;;;;;;39.25;27.60;;;5.50;99.90;;;;;;4994593;28;20061;-74
2022/02/05 10:49:51;;;;;;;42.20;29.20;;;5.70;99.90;;;;;;4993532;28;20385;-76
2022/02/05 10:52:33;;;;;;;42.80;27.70;;;5.40;99.90;;;;;;4993742;28;20053;-76
2022/02/05 10:55:17;;;;;;;42.13;27.45;;;5.50;99.90;;;;;;4972859;28;20490;-75
2022/02/05 10:58:23;;;;;;;41.10;27.23;;;5.60;99.90;;;;;;4976224;28;20417;-77
2022/02/05 11:05:58;;;;;;;39.78;25.70;;;5.80;99.90;;;;;;4991190;28;20453;-75
2022/02/05 11:08:33;;;;;;;40.67;26.35;;;6.00;99.80;;;;;;4994209;28;20053;-75
2022/02/05 11:14:57;;;;;;;42.10;26.40;;;6.10;99.10;;;;;;4942118;28;20069;-73
2022/02/05 11:20:07;;;;;;;37.05;26.17;;;5.70;99.80;;;;;;4993141;28;20053;-74
2022/02/05 11:22:48;;;;;;;41.63;26.33;;;5.90;99.20;;;;;;4992173;28;20125;-74
2022/02/05 11:25:21;;;;;;;39.97;25.63;;;6.00;98.70;;;;;;4992809;28;20042;-74
2022/02/05 11:27:53;;;;;;;41.75;25.63;;;6.20;98.40;;;;;;4975005;28;20379;-75
2022/02/05 11:30:31;;;;;;;38.15;26.98;;;6.30;98.60;;;;;;4990511;28;20454;-72
2022/02/05 11:33:25;;;;;;;37.83;26.58;;;6.40;97.60;;;;;;4975701;28;20571;-74
2022/02/05 11:39:00;;;;;;;50.20;34.35;;;6.10;97.90;;;;;;4991927;28;20043;-75
2022/02/05 11:41:37;;;;;;;53.03;32.65;;;6.40;99.90;;;;;;4991291;28;20347;-71
2022/02/05 11:44:31;;;;;;;41.72;27.80;;;6.60;99.10;;;;;;4992868;28;20383;-72
2022/02/05 11:47:07;;;;;;;43.72;27.52;;;6.80;97.70;;;;;;4976801;28;20042;-76
2022/02/05 11:49:52;;;;;;;40.13;26.25;;;6.70;96.50;;;;;;4992747;28;20070;-79
2022/02/05 11:52:44;;;;;;;40.83;26.85;;;6.40;97.00;;;;;;4991900;28;20481;-74
2022/02/05 11:55:12;;;;;;;37.13;27.27;;;6.80;96.80;;;;;;4973298;28;20062;-78
2022/02/05 11:57:42;;;;;;;38.85;27.25;;;7.80;95.30;;;;;;4973296;28;20057;-76
2022/02/05 12:00:23;;;;;;;39.90;27.15;;;8.60;91.40;;;;;;4992953;28;20501;-74
2022/02/05 12:03:03;;;;;;;;;;;8.10;89.80;;;;;;4994039;28;20050;-72
2022/02/05 12:05:37;;;;;;;38.08;24.92;;;7.60;90.60;;;;;;4990195;28;19921;-78
2022/02/05 12:08:05;;;;;;;46.60;27.77;;;7.60;91.40;;;;;;4975485;28;20046;-79
2022/02/05 12:22:03;;;;;;;45.22;29.83;;;7.30;91.20;;;;;;5115522;27;20776;-76
2022/02/05 12:25:11;;;;;;;40.20;30.02;;;7.20;92.60;;;;;;5114482;28;20375;-80
2022/02/05 12:27:39;;;;;;;42.92;26.17;;;7.10;92.80;;;;;;5080374;28;20036;-77
2022/02/05 12:30:38;;;;;;;45.88;29.65;;;7.20;92.30;;;;;;5102671;28;20043;-79
2022/02/05 12:33:08;;;;;;;41.63;28.98;;;7.00;92.30;;;;;;5103827;28;20027;-78
2022/02/05 12:35:37;;;;;;;43.45;28.40;;;7.20;92.70;;;;;;5103342;28;20663;-76
2022/02/05 12:38:06;;;;;;;41.90;28.45;;;7.40;92.40;;;;;;5104861;28;20391;-80
2022/02/05 12:40:49;;;;;;;44.42;26.98;;;7.40;91.80;;;;;;5102878;28;20039;-77
2022/02/05 12:43:19;;;;;;;45.28;26.73;;;7.50;91.80;;;;;;5103674;28;20507;-77
2022/02/05 12:45:56;;;;;;;43.75;28.50;;;7.70;91.50;;;;;;5103161;28;20122;-79
2022/02/05 12:48:27;;;;;;;42.42;27.90;;;7.70;91.70;;;;;;5104684;28;20039;-78
2022/02/05 12:50:59;;;;;;;44.15;26.77;;;7.70;91.30;;;;;;5103250;28;20043;-77
2022/02/05 12:53:33;;;;;;;42.97;24.27;;;7.70;91.40;;;;;;5085084;28;20380;-77
2022/02/05 12:56:16;;;;;;;35.35;23.55;;;7.70;91.20;;;;;;5103493;28;20046;-76
2022/02/05 12:58:51;;;;;;;39.85;27.63;;;7.70;90.70;;;;;;5087235;28;20070;-78
2022/02/05 13:01:19;;;;;;;37.95;26.80;;;7.50;91.20;;;;;;5098316;28;20031;-77
2022/02/05 13:04:10;;;;;;;43.97;26.88;;;7.50;91.90;;;;;;5102907;28;20032;-75
2022/02/05 13:06:38;;;;;;;40.70;25.58;;;7.10;92.20;;;;;;5102652;28;20024;-76
2022/02/05 13:09:28;;;;;;;34.20;24.17;;;7.10;91.80;;;;;;5103948;28;20036;-77
2022/02/05 13:12:00;;;;;;;46.33;25.67;;;7.00;92.50;;;;;;5069040;28;20125;-78
2022/02/05 13:15:04;;;;;;;40.70;24.55;;;6.90;92.20;;;;;;5065964;28;20114;-76
2022/02/05 13:17:48;;;;;;;40.58;24.08;;;6.80;93.10;;;;;;5039299;28;20044;-77
2022/02/05 13:34:27;;;;;;;38.05;24.65;;;7.30;91.40;;;;;;5068651;28;20366;-79
2022/02/05 13:37:11;;;;;;;36.88;23.67;;;7.30;91.70;;;;;;5067338;28;20046;-80
2022/02/05 13:42:17;;;;;;;39.10;25.42;;;7.30;92.70;;;;;;5066697;28;20040;-81
2022/02/05 13:47:27;;;;;;;37.22;24.98;;;7.20;92.00;;;;;;5069169;28;20033;-82
2022/02/05 13:50:12;;;;;;;36.83;24.75;;;7.30;91.80;;;;;;5053015;28;20140;-80
2022/02/05 13:52:49;;;;;;;42.83;24.88;;;7.20;91.20;;;;;;5065901;28;20047;-78
2022/02/05 13:55:44;;;;;;;35.63;24.30;;;7.30;91.80;;;;;;5051201;28;20071;-75
2022/02/05 13:58:15;;;;;;;38.28;24.80;;;7.40;91.20;;;;;;5064206;28;20048;-81
2022/02/05 14:00:44;;;;;;;43.92;25.55;;;7.30;91.20;;;;;;5051599;28;20036;-79
2022/02/05 14:03:28;;;;;;;39.67;23.55;;;7.30;91.30;;;;;;5066860;28;20040;-76
2022/02/05 14:06:07;;;;;;;38.72;24.45;;;7.40;93.80;;;;;;5064546;28;20135;-76
2022/02/05 14:08:52;;;;;;;40.08;25.52;;;7.50;92.30;;;;;;5068725;28;20161;-82
2022/02/05 14:11:33;;;;;;;40.17;24.05;;;7.50;92.10;;;;;;5069506;28;20453;-76
2022/02/05 14:14:12;;;;;;;39.42;25.50;;;7.30;91.80;;;;;;5070565;28;20048;-77
2022/02/05 14:16:41;;;;;;;41.72;24.38;;;7.30;91.70;;;;;;5052747;28;20036;-78
2022/02/05 14:19:27;;;;;;;36.83;25.60;;;7.10;91.50;;;;;;5054734;28;20397;-77
2022/02/05 14:21:57;;;;;;;34.55;25.13;;;7.20;92.10;;;;;;5070685;28;20047;-76
2022/02/05 14:24:30;;;;;;;100.30;52.17;;;7.10;92.10;;;;;;5069940;28;20052;-76
2022/02/05 14:27:13;;;;;;;37.40;26.00;;;7.30;93.40;;;;;;5053119;28;20054;-75
2022/02/05 14:32:28;;;;;;;45.50;28.05;;;7.60;93.20;;;;;;5087089;28;20052;-78
2022/02/05 14:42:50;;;;;;;46.42;30.48;;;7.30;93.50;;;;;;5062685;28;20037;-75
2022/02/05 14:45:17;;;;;;;52.42;31.27;;;7.20;93.40;;;;;;5033818;28;20041;-76
2022/02/05 14:47:45;;;;;;;167.82;90.03;;;7.20;94.00;;;;;;5051893;28;20044;-79
2022/02/05 14:50:13;;;;;;;79.60;49.22;;;7.40;95.50;;;;;;5034524;28;20072;-73
2022/02/05 14:52:41;;;;;;;54.75;35.75;;;7.40;95.00;;;;;;5050922;28;20055;-77
2022/02/05 14:55:08;;;;;;;49.47;31.10;;;7.30;95.20;;;;;;5069487;28;20102;-81
2022/02/05 14:57:39;;;;;;;51.88;31.27;;;7.30;95.90;;;;;;5054210;28;20464;-76
2022/02/05 15:00:06;;;;;;;52.67;30.85;;;7.30;96.20;;;;;;5070555;28;20042;-81
2022/02/05 15:02:34;;;;;;;45.83;30.35;;;7.30;96.10;;;;;;5072584;28;20392;-78
2022/02/05 15:05:09;;;;;;;49.58;29.02;;;7.20;96.20;;;;;;5069429;28;20040;-78
2022/02/05 15:07:42;;;;;;;46.40;30.70;;;7.10;96.00;;;;;;5074393;28;20358;-76
2022/02/05 15:10:15;;;;;;;54.53;30.83;;;7.10;95.80;;;;;;5071208;28;20036;-76
2022/02/05 15:12:43;;;;;;;51.30;34.38;;;7.00;96.60;;;;;;5070008;28;20063;-77
2022/02/05 15:15:19;;;;;;;54.72;34.28;;;6.90;97.00;;;;;;5070805;28;20380;-78
2022/02/05 15:17:46;;;;;;;61.60;38.65;;;6.80;97.60;;;;;;5069469;28;20431;-78
2022/02/05 15:20:16;;;;;;;78.13;44.28;;;6.80;98.10;;;;;;5071547;28;20058;-76
2022/02/05 15:22:48;;;;;;;72.00;45.20;;;6.70;98.60;;;;;;5071421;28;20033;-82
2022/02/05 15:25:16;;;;;;;81.68;51.50;;;6.70;99.10;;;;;;5069326;28;20041;-77
2022/02/05 15:27:46;;;;;;;84.68;50.97;;;6.80;99.20;;;;;;5069797;28;20036;-73
2022/02/05 15:30:15;;;;;;;84.47;51.90;;;6.70;99.30;;;;;;5070391;28;20120;-77
2022/02/05 15:32:44;;;;;;;88.05;49.20;;;6.70;99.60;;;;;;5052687;28;20064;-77
2022/02/05 15:35:12;;;;;;;76.13;47.27;;;6.70;99.60;;;;;;5073596;28;20394;-76
2022/02/05 15:37:42;;;;;;;75.15;44.17;;;6.60;99.60;;;;;;5058366;28;20036;-78
2022/02/05 15:45:26;;;;;;;65.60;39.15;;;6.50;99.90;;;;;;5071336;28;19916;-79
2022/02/05 15:47:53;;;;;;;63.95;40.45;;;6.40;99.90;;;;;;5071444;28;20048;-77
2022/02/05 15:50:20;;;;;;;66.47;39.33;;;6.50;99.90;;;;;;5070159;28;20047;-77
2022/02/05 15:52:48;;;;;;;58.75;37.85;;;6.50;99.90;;;;;;5070504;28;20040;-78
2022/02/05 15:55:18;;;;;;;60.33;38.03;;;6.40;99.90;;;;;;5071035;28;20067;-79
2022/02/05 15:58:09;;;;;;;64.70;37.00;;;6.40;99.90;;;;;;5071445;28;20044;-80
2022/02/05 16:00:38;;;;;;;64.28;38.13;;;6.50;99.90;;;;;;5071136;28;20037;-79
2022/02/05 16:03:07;;;;;;;66.68;40.40;;;6.60;99.90;;;;;;5070231;28;20040;-80
2022/02/05 16:05:35;;;;;;;71.95;40.33;;;6.50;99.90;;;;;;5070627;28;20032;-76
2022/02/05 16:08:03;;;;;;;68.20;42.22;;;6.50;99.90;;;;;;5071441;28;20191;-79
2022/02/05 16:10:30;;;;;;;70.72;42.58;;;6.60;99.90;;;;;;5069376;28;20120;-80
2022/02/05 16:12:58;;;;;;;109.40;59.92;;;6.40;99.90;;;;;;5071547;28;20048;-78
2022/02/05 16:15:25;;;;;;;253.45;123.28;;;6.40;99.90;;;;;;5086565;28;20468;-80
2022/02/05 16:17:52;;;;;;;98.60;59.20;;;6.50;99.90;;;;;;5070280;28;20047;-81
2022/02/05 16:20:21;;;;;;;85.90;49.08;;;6.50;99.90;;;;;;5069456;28;20127;-80
2022/02/05 16:22:49;;;;;;;126.30;70.72;;;6.50;99.90;;;;;;5071284;28;20056;-78
2022/02/05 16:25:21;;;;;;;259.10;128.60;;;6.60;99.90;;;;;;5070844;28;20036;-79